Time;durP1;ratioP1;P1;durP2;ratioP2;P2;SDS_P1;SDS_P2;PMS_P1;PMS_P2;Temp;Humidity;BMP_temperature;BMP_pressure;BME280_temperature;BME280_humidity;BME280_pressure;Samples;Min_cycle;Max_cycle;Signal;HPM_P1;HPM_P2
2021/12/24 00:00:11;;;;;;;;;31.00;26.00;;;;;;;;4996545;28;45795;-65
2021/12/24 00:02:37;;;;;;;;;49.75;29.00;;;;;;;;4994852;28;45522;-65
2021/12/24 00:05:03;;;;;;;;;32.50;28.25;;;;;;;;4995602;28;45523;-65
2021/12/24 00:07:28;;;;;;;;;43.25;28.00;;;;;;;;4995979;28;45365;-65
2021/12/24 00:09:53;;;;;;;;;31.33;26.67;;;;;;;;4996432;28;45364;-65
2021/12/24 00:12:20;;;;;;;;;26.67;26.00;;;;;;;;4996116;28;45504;-65
2021/12/24 00:14:51;;;;;;;;;30.75;26.50;;;;;;;;4995798;28;46517;-65
2021/12/24 00:17:22;;;;;;;;;33.50;28.50;;;;;;;;4995516;28;45890;-65
2021/12/24 00:35:59;;;;;;;;;39.25;31.00;;;;;;;;4992862;28;45853;-65
2021/12/24 00:38:24;;;;;;;;;34.00;29.33;;;;;;;;4993618;28;45574;-65
2021/12/24 00:40:49;;;;;;;;;37.00;32.00;;;;;;;;4993375;28;45574;-65
2021/12/24 00:43:16;;;;;;;;;36.67;30.67;;;;;;;;4993517;28;45422;-65
2021/12/24 00:45:42;;;;;;;;;42.75;32.50;;;;;;;;4989496;28;45676;-65
2021/12/24 00:48:09;;;;;;;;;38.00;30.50;;;;;;;;4992991;28;45521;-65
2021/12/24 00:50:52;;;;;;;;;32.25;29.00;;;;;;;;4993330;28;45478;-65
2021/12/24 00:55:58;;;;;;;;;40.25;30.75;;;;;;;;4992615;28;46174;-65
2021/12/24 00:58:24;;;;;;;;;35.00;29.25;;;;;;;;4976610;28;45516;-65
2021/12/24 01:00:49;;;;;;;;;41.33;28.67;;;;;;;;4995170;28;45393;-65
2021/12/24 01:03:14;;;;;;;;;33.50;29.50;;;;;;;;4991473;28;45340;-65
2021/12/24 01:05:40;;;;;;;;;41.33;32.00;;;;;;;;4994990;28;45624;-65
2021/12/24 01:08:06;;;;;;;;;35.25;27.25;;;;;;;;4993342;28;45862;-65
2021/12/24 01:10:33;;;;;;;;;30.50;25.25;;;;;;;;4995304;28;45433;-65
2021/12/24 01:12:59;;;;;;;;;32.50;28.50;;;;;;;;4995433;28;45367;-65
2021/12/24 01:15:25;;;;;;;;;37.50;31.50;;;;;;;;4995018;28;46012;-65
2021/12/24 01:20:45;;;;;;;;;39.00;30.00;;;;;;;;4995048;28;45441;-66
2021/12/24 01:39:21;;;;;;;;;44.00;35.00;;;;;;;;4992235;28;45538;-65
2021/12/24 01:44:31;;;;;;;;;40.25;36.00;;;;;;;;4992289;28;45364;-66
2021/12/24 01:46:57;;;;;;;;;34.00;33.00;;;;;;;;4992094;28;46514;-66
2021/12/24 01:49:23;;;;;;;;;41.50;34.50;;;;;;;;4992230;28;45871;-66
2021/12/24 01:51:48;;;;;;;;;43.75;35.00;;;;;;;;4978421;28;45381;-66
2021/12/24 01:54:13;;;;;;;;;37.50;31.00;;;;;;;;4992943;28;45382;-66
2021/12/24 01:56:39;;;;;;;;;37.00;34.00;;;;;;;;4991811;28;47471;-66
2021/12/24 01:59:04;;;;;;;;;36.00;29.00;;;;;;;;4991653;28;45410;-66
2021/12/24 02:01:29;;;;;;;;;33.25;29.50;;;;;;;;4993496;28;45535;-66
2021/12/24 02:03:55;;;;;;;;;39.33;30.67;;;;;;;;4993178;28;45627;-66
2021/12/24 02:06:20;;;;;;;;;43.00;34.25;;;;;;;;4994829;28;46095;-66
2021/12/24 02:08:45;;;;;;;;;37.50;33.25;;;;;;;;4997286;28;45299;-66
2021/12/24 02:11:11;;;;;;;;;39.67;30.33;;;;;;;;4997627;28;45390;-66
2021/12/24 02:13:38;;;;;;;;;40.00;28.25;;;;;;;;4997503;28;45331;-66
2021/12/24 02:16:43;;;;;;;;;40.00;33.25;;;;;;;;5012996;28;45380;-66
2021/12/24 02:29:49;;;;;;;;;40.25;31.50;;;;;;;;4997479;28;45427;-66
2021/12/24 02:32:14;;;;;;;;;35.33;26.00;;;;;;;;4996872;28;45416;-66
2021/12/24 02:34:39;;;;;;;;;34.33;27.33;;;;;;;;4997704;28;45470;-66
2021/12/24 02:37:04;;;;;;;;;32.67;25.33;;;;;;;;4997478;28;45517;-66
2021/12/24 02:39:30;;;;;;;;;39.67;31.33;;;;;;;;4998233;28;45526;-66
2021/12/24 02:41:57;;;;;;;;;33.75;25.75;;;;;;;;4996605;28;45485;-66
2021/12/24 02:44:22;;;;;;;;;32.25;23.75;;;;;;;;4997474;28;45357;-66
2021/12/24 02:54:51;;;;;;;;;35.50;28.50;;;;;;;;4994778;28;45368;-66
2021/12/24 02:57:20;;;;;;;;;28.33;23.33;;;;;;;;4996980;28;46403;-66
2021/12/24 02:59:58;;;;;;;;;28.50;25.25;;;;;;;;4997044;28;45419;-66
2021/12/24 03:02:23;;;;;;;;;31.25;26.25;;;;;;;;4996112;28;45479;-66
2021/12/24 03:04:48;;;;;;;;;26.50;22.00;;;;;;;;4996977;28;45565;-66
2021/12/24 03:07:14;;;;;;;;;33.67;26.00;;;;;;;;4996580;28;45424;-66
2021/12/24 03:09:39;;;;;;;;;28.67;23.00;;;;;;;;4997240;28;45354;-66
2021/12/24 03:12:04;;;;;;;;;23.33;19.67;;;;;;;;4995589;28;45580;-66
2021/12/24 03:14:29;;;;;;;;;30.00;24.25;;;;;;;;4996781;28;45546;-66
2021/12/24 03:16:56;;;;;;;;;34.00;29.33;;;;;;;;4996716;28;47434;-66
2021/12/24 03:19:25;;;;;;;;;25.25;23.75;;;;;;;;4996909;28;45817;-66
2021/12/24 03:21:57;;;;;;;;;28.25;24.50;;;;;;;;4997468;28;45370;-66
2021/12/24 03:26:48;;;;;;;;;30.67;24.33;;;;;;;;4996115;28;45408;-66
2021/12/24 03:29:15;;;;;;;;;22.00;20.00;;;;;;;;4996559;28;45468;-66
2021/12/24 03:31:40;;;;;;;;;29.75;21.50;;;;;;;;4995993;28;45514;-66
2021/12/24 03:34:07;;;;;;;;;29.75;27.50;;;;;;;;4996831;28;45574;-66
2021/12/24 03:36:32;;;;;;;;;33.75;27.50;;;;;;;;4997280;28;45786;-66
2021/12/24 03:38:58;;;;;;;;;26.67;22.33;;;;;;;;4996318;28;45547;-66
2021/12/24 03:41:24;;;;;;;;;33.00;24.00;;;;;;;;4994779;28;46891;-66
2021/12/24 03:43:49;;;;;;;;;28.75;23.75;;;;;;;;4995021;28;45488;-66
2021/12/24 03:46:17;;;;;;;;;33.50;23.00;;;;;;;;4996462;28;46348;-66
2021/12/24 03:48:54;;;;;;;;;33.50;22.50;;;;;;;;4992777;28;45482;-66
2021/12/24 03:56:30;;;;;;;;;24.75;24.50;;;;;;;;4995280;28;45486;-66
2021/12/24 03:58:55;;;;;;;;;37.00;27.25;;;;;;;;4996652;28;45396;-66
2021/12/24 04:01:20;;;;;;;;;29.00;24.33;;;;;;;;4995577;28;49392;-66
2021/12/24 04:03:45;;;;;;;;;35.33;24.00;;;;;;;;4996590;28;45347;-66
2021/12/24 04:06:10;;;;;;;;;30.33;24.33;;;;;;;;4996329;28;46972;-66
2021/12/24 04:08:36;;;;;;;;;30.67;20.33;;;;;;;;4995777;28;45304;-66
2021/12/24 04:11:01;;;;;;;;;31.25;24.75;;;;;;;;4995591;28;45376;-66
2021/12/24 04:13:27;;;;;;;;;33.00;26.25;;;;;;;;4996268;28;45249;-66
2021/12/24 04:15:52;;;;;;;;;31.00;23.33;;;;;;;;4996353;28;46566;-66
2021/12/24 04:18:35;;;;;;;;;29.25;24.75;;;;;;;;4993884;28;45416;-66
2021/12/24 04:26:31;;;;;;;;;28.75;26.00;;;;;;;;4995513;28;45737;-66
2021/12/24 04:28:56;;;;;;;;;29.00;25.25;;;;;;;;4996135;28;45587;-66
2021/12/24 04:31:27;;;;;;;;;29.33;25.33;;;;;;;;4993740;28;45286;-66
2021/12/24 04:33:58;;;;;;;;;30.50;25.00;;;;;;;;4995603;28;45345;-66
2021/12/24 05:03:43;;;;;;;;;26.00;23.25;;;;;;;;4954630;28;45503;-66
2021/12/24 05:06:28;;;;;;;;;28.50;20.50;;;;;;;;4953804;28;47820;-66
2021/12/24 05:08:56;;;;;;;;;27.00;23.00;;;;;;;;4953101;28;46490;-66
2021/12/24 05:11:23;;;;;;;;;29.75;24.25;;;;;;;;4953736;28;45906;-66
2021/12/24 05:13:49;;;;;;;;;21.75;19.75;;;;;;;;4953733;28;45591;-67
2021/12/24 05:21:42;;;;;;;;;27.25;21.25;;;;;;;;4953299;28;45465;-67
2021/12/24 05:24:10;;;;;;;;;29.50;22.75;;;;;;;;4937147;28;47159;-66
2021/12/24 05:26:35;;;;;;;;;24.75;19.25;;;;;;;;4914956;28;45589;-66
2021/12/24 05:29:01;;;;;;;;;30.00;23.25;;;;;;;;4914817;28;46305;-66
2021/12/24 05:31:27;;;;;;;;;26.25;19.50;;;;;;;;4917182;28;45414;-66
2021/12/24 05:33:52;;;;;;;;;28.00;25.00;;;;;;;;4898956;28;45484;-66
2021/12/24 05:36:18;;;;;;;;;27.75;18.75;;;;;;;;4918615;28;45454;-66
2021/12/24 05:38:43;;;;;;;;;24.33;19.00;;;;;;;;4992872;28;45482;-66
2021/12/24 05:41:09;;;;;;;;;24.00;20.50;;;;;;;;4993996;28;45478;-66
2021/12/24 05:43:34;;;;;;;;;20.75;19.25;;;;;;;;4994417;28;45795;-66
2021/12/24 05:45:59;;;;;;;;;27.67;20.00;;;;;;;;4994800;28;45479;-66
2021/12/24 05:48:24;;;;;;;;;28.00;24.33;;;;;;;;4995229;28;46468;-66
2021/12/24 05:50:50;;;;;;;;;21.75;20.50;;;;;;;;4994131;28;45360;-66
2021/12/24 05:53:15;;;;;;;;;21.50;20.25;;;;;;;;4994634;28;45334;-66
2021/12/24 05:55:40;;;;;;;;;26.00;20.33;;;;;;;;4994721;28;45327;-66
2021/12/24 05:58:07;;;;;;;;;25.00;20.33;;;;;;;;4994327;28;47230;-66
2021/12/24 06:00:35;;;;;;;;;23.75;18.50;;;;;;;;4994029;28;45349;-66
2021/12/24 06:03:00;;;;;;;;;21.75;19.50;;;;;;;;5009704;28;45428;-66
2021/12/24 06:05:26;;;;;;;;;20.00;20.00;;;;;;;;4994067;28;45442;-66
2021/12/24 06:07:51;;;;;;;;;19.67;17.67;;;;;;;;4993789;28;46700;-66
2021/12/24 06:10:16;;;;;;;;;23.67;18.33;;;;;;;;4994461;28;45561;-66
2021/12/24 06:12:41;;;;;;;;;17.33;17.00;;;;;;;;4995508;28;45422;-66
2021/12/24 06:15:08;;;;;;;;;25.00;22.00;;;;;;;;4994114;28;45499;-66
2021/12/24 06:17:36;;;;;;;;;30.25;22.00;;;;;;;;4994133;28;45617;-66
2021/12/24 06:20:02;;;;;;;;;22.75;18.00;;;;;;;;4994124;28;45278;-66
2021/12/24 06:22:27;;;;;;;;;26.50;23.75;;;;;;;;4994306;28;45352;-66
2021/12/24 06:24:52;;;;;;;;;23.00;19.33;;;;;;;;4994752;28;45459;-66
2021/12/24 06:27:18;;;;;;;;;22.75;17.00;;;;;;;;4993127;28;45425;-66
2021/12/24 06:29:43;;;;;;;;;27.00;22.67;;;;;;;;4994520;28;45490;-66
2021/12/24 06:32:08;;;;;;;;;29.67;22.00;;;;;;;;4993587;28;45482;-66
2021/12/24 06:34:34;;;;;;;;;24.25;18.75;;;;;;;;4992176;28;45589;-66
2021/12/24 06:36:59;;;;;;;;;23.00;19.33;;;;;;;;5009256;28;47470;-67
2021/12/24 06:39:24;;;;;;;;;23.00;22.00;;;;;;;;4994383;28;45495;-66
2021/12/24 06:41:50;;;;;;;;;20.50;17.25;;;;;;;;4993920;28;45438;-66
2021/12/24 06:44:15;;;;;;;;;23.00;20.67;;;;;;;;4994481;28;45567;-66
2021/12/24 06:46:41;;;;;;;;;26.33;23.33;;;;;;;;4993667;28;45506;-66
2021/12/24 06:49:06;;;;;;;;;25.75;24.00;;;;;;;;4992756;28;45459;-66
2021/12/24 06:51:31;;;;;;;;;23.50;19.00;;;;;;;;4994327;28;45391;-66
2021/12/24 06:53:57;;;;;;;;;27.33;19.00;;;;;;;;4996143;28;45794;-66
2021/12/24 06:56:22;;;;;;;;;24.75;19.75;;;;;;;;4996920;28;46560;-66
2021/12/24 06:58:47;;;;;;;;;23.33;19.00;;;;;;;;4997147;28;45491;-66
2021/12/24 07:01:13;;;;;;;;;18.75;18.50;;;;;;;;4997301;28;45874;-66
2021/12/24 07:03:39;;;;;;;;;25.00;20.25;;;;;;;;4997484;28;45590;-66
2021/12/24 07:06:04;;;;;;;;;22.50;21.50;;;;;;;;4996914;28;46668;-66
2021/12/24 07:08:30;;;;;;;;;22.75;19.50;;;;;;;;4996405;28;45391;-66
2021/12/24 07:10:55;;;;;;;;;28.50;20.50;;;;;;;;4997065;28;45486;-66
2021/12/24 07:13:20;;;;;;;;;23.00;18.67;;;;;;;;4997150;28;45459;-66
2021/12/24 07:15:45;;;;;;;;;21.33;20.00;;;;;;;;4997808;28;46654;-66
2021/12/24 07:18:11;;;;;;;;;28.50;21.00;;;;;;;;4996480;28;45384;-66
2021/12/24 07:20:36;;;;;;;;;22.00;17.33;;;;;;;;4995937;28;45404;-66
2021/12/24 07:23:01;;;;;;;;;22.67;18.67;;;;;;;;4996893;28;45316;-66
2021/12/24 07:25:26;;;;;;;;;21.67;18.00;;;;;;;;4996586;28;45441;-66
2021/12/24 07:27:52;;;;;;;;;27.67;24.00;;;;;;;;4996679;28;45452;-66
2021/12/24 07:30:18;;;;;;;;;31.00;21.00;;;;;;;;4997454;28;45224;-66
2021/12/24 07:32:44;;;;;;;;;22.25;19.75;;;;;;;;4995753;28;45233;-66
2021/12/24 07:35:10;;;;;;;;;20.25;18.00;;;;;;;;4996318;28;45410;-66
2021/12/24 07:37:35;;;;;;;;;22.00;18.50;;;;;;;;4996650;28;45320;-66
2021/12/24 07:40:02;;;;;;;;;22.50;19.25;;;;;;;;4997169;28;45344;-66
2021/12/24 07:42:28;;;;;;;;;23.50;20.00;;;;;;;;4996165;28;45458;-66
2021/12/24 07:44:53;;;;;;;;;25.00;21.50;;;;;;;;4995341;28;47024;-66
2021/12/24 07:47:28;;;;;;;;;17.00;13.33;;;;;;;;4994816;28;45572;-66
2021/12/24 07:50:01;;;;;;;;;25.25;19.75;;;;;;;;4995028;28;45320;-66
2021/12/24 07:52:26;;;;;;;;;26.75;22.25;;;;;;;;4995507;28;45498;-66
2021/12/24 07:54:54;;;;;;;;;22.33;18.67;;;;;;;;4996809;28;45516;-66
2021/12/24 07:57:19;;;;;;;;;23.25;21.75;;;;;;;;4995709;28;47040;-66
2021/12/24 07:59:44;;;;;;;;;21.67;16.00;;;;;;;;4995065;28;45560;-66
2021/12/24 08:02:11;;;;;;;;;20.00;19.00;;;;;;;;4993516;28;46156;-66
2021/12/24 08:04:37;;;;;;;;;30.75;19.00;;;;;;;;4993975;28;45669;-66
2021/12/24 08:07:03;;;;;;;;;22.75;18.25;;;;;;;;4994257;28;45351;-66
2021/12/24 08:09:29;;;;;;;;;23.00;19.25;;;;;;;;4996594;28;45270;-66
2021/12/24 08:11:54;;;;;;;;;20.50;15.75;;;;;;;;4994892;28;45528;-66
2021/12/24 08:14:20;;;;;;;;;20.00;18.00;;;;;;;;4994693;28;45731;-66
2021/12/24 08:16:45;;;;;;;;;19.67;18.33;;;;;;;;4994659;28;45637;-66
2021/12/24 08:19:10;;;;;;;;;19.67;19.00;;;;;;;;4996091;28;45613;-66
2021/12/24 08:21:36;;;;;;;;;28.75;19.75;;;;;;;;4996478;28;45376;-66
2021/12/24 08:24:01;;;;;;;;;20.33;14.67;;;;;;;;4996108;28;46723;-66
2021/12/24 08:26:29;;;;;;;;;24.50;19.00;;;;;;;;4995601;28;45459;-66
2021/12/24 08:28:54;;;;;;;;;18.25;16.50;;;;;;;;4995940;28;45343;-66
2021/12/24 08:31:19;;;;;;;;;17.67;17.00;;;;;;;;4994949;28;45320;-66
2021/12/24 08:33:44;;;;;;;;;20.67;16.33;;;;;;;;4995937;28;45568;-66
2021/12/24 08:36:11;;;;;;;;;21.67;18.00;;;;;;;;4995702;28;45637;-66
2021/12/24 08:38:36;;;;;;;;;21.25;18.50;;;;;;;;4995044;28;45795;-66
2021/12/24 08:41:02;;;;;;;;;22.00;18.67;;;;;;;;4995652;28;45439;-66
2021/12/24 08:43:27;;;;;;;;;27.00;19.75;;;;;;;;4995329;28;45657;-66
2021/12/24 08:45:52;;;;;;;;;24.00;18.75;;;;;;;;4995267;28;45376;-66
2021/12/24 08:48:18;;;;;;;;;21.25;17.25;;;;;;;;4994171;28;45307;-67
2021/12/24 08:50:44;;;;;;;;;21.75;18.75;;;;;;;;4996012;28;45452;-66
2021/12/24 08:53:09;;;;;;;;;21.25;20.00;;;;;;;;4995182;28;47375;-66
2021/12/24 08:55:35;;;;;;;;;23.67;20.33;;;;;;;;4994142;28;45602;-67
2021/12/24 08:58:02;;;;;;;;;26.00;19.00;;;;;;;;4994553;28;45460;-66
2021/12/24 09:00:27;;;;;;;;;25.75;19.50;;;;;;;;4993387;28;45428;-66
2021/12/24 09:02:52;;;;;;;;;24.33;18.00;;;;;;;;4993707;28;46308;-66
2021/12/24 09:05:18;;;;;;;;;29.33;19.00;;;;;;;;4994180;28;45417;-66
2021/12/24 09:07:43;;;;;;;;;24.33;19.67;;;;;;;;4993954;28;45281;-66
2021/12/24 09:10:09;;;;;;;;;27.75;19.50;;;;;;;;4994141;28;45330;-66
2021/12/24 09:12:34;;;;;;;;;25.25;16.50;;;;;;;;4995244;28;46460;-66
2021/12/24 09:15:00;;;;;;;;;25.33;22.67;;;;;;;;4992851;28;45510;-66
2021/12/24 09:17:27;;;;;;;;;24.33;19.00;;;;;;;;4992597;28;45333;-66
2021/12/24 09:19:54;;;;;;;;;20.00;20.00;;;;;;;;4993775;28;45653;-66
2021/12/24 09:22:22;;;;;;;;;25.00;21.00;;;;;;;;4993302;28;47446;-66
2021/12/24 09:24:50;;;;;;;;;23.00;18.00;;;;;;;;4995077;28;45427;-66
2021/12/24 09:27:16;;;;;;;;;23.75;16.50;;;;;;;;4994984;28;45469;-66
2021/12/24 09:29:42;;;;;;;;;18.75;16.25;;;;;;;;4993205;28;45442;-66
2021/12/24 09:32:07;;;;;;;;;27.50;20.00;;;;;;;;4993578;28;45599;-66
2021/12/24 09:34:32;;;;;;;;;21.50;18.50;;;;;;;;4995561;28;45454;-66
2021/12/24 09:36:58;;;;;;;;;21.00;15.33;;;;;;;;4994903;28;45443;-66
2021/12/24 09:39:23;;;;;;;;;19.00;16.67;;;;;;;;4995464;28;45333;-66
2021/12/24 09:41:48;;;;;;;;;20.00;18.67;;;;;;;;4993209;28;47482;-66
2021/12/24 09:44:14;;;;;;;;;19.75;16.50;;;;;;;;4993488;28;45425;-66
2021/12/24 09:46:42;;;;;;;;;22.25;19.00;;;;;;;;4994028;28;45375;-66
2021/12/24 09:49:08;;;;;;;;;20.50;15.75;;;;;;;;4994642;28;45285;-66
2021/12/24 09:51:38;;;;;;;;;19.25;17.75;;;;;;;;4995024;28;46485;-67
2021/12/24 09:54:07;;;;;;;;;24.25;16.50;;;;;;;;4994610;28;45446;-66
2021/12/24 09:56:32;;;;;;;;;22.25;17.75;;;;;;;;4994464;28;45391;-66
2021/12/24 09:58:58;;;;;;;;;27.00;20.67;;;;;;;;4992571;28;45842;-66
2021/12/24 10:01:30;;;;;;;;;28.67;22.00;;;;;;;;4994931;28;46498;-66
2021/12/24 10:04:15;;;;;;;;;26.75;19.75;;;;;;;;4994585;28;45381;-66
2021/12/24 10:06:59;;;;;;;;;25.75;21.50;;;;;;;;4994850;28;45377;-66
2021/12/24 10:09:29;;;;;;;;;24.00;19.50;;;;;;;;4994770;28;45328;-66
2021/12/24 10:11:59;;;;;;;;;20.75;16.25;;;;;;;;4992167;28;46694;-66
2021/12/24 10:14:30;;;;;;;;;20.00;17.00;;;;;;;;4990986;28;46015;-66
2021/12/24 10:16:55;;;;;;;;;30.00;25.00;;;;;;;;4993293;28;45399;-66
2021/12/24 10:19:20;;;;;;;;;27.50;22.00;;;;;;;;4993017;28;45448;-66
2021/12/24 10:21:47;;;;;;;;;26.00;21.75;;;;;;;;4994978;28;45546;-66
2021/12/24 10:24:14;;;;;;;;;24.00;19.00;;;;;;;;4992067;28;45822;-66
2021/12/24 10:26:47;;;;;;;;;24.75;19.50;;;;;;;;4992483;28;45272;-66
2021/12/24 10:29:18;;;;;;;;;23.50;21.00;;;;;;;;4995308;28;45957;-66
2021/12/24 10:31:46;;;;;;;;;21.75;19.50;;;;;;;;4996426;28;45589;-66
2021/12/24 10:34:13;;;;;;;;;27.25;18.00;;;;;;;;4996390;28;45305;-66
2021/12/24 10:36:54;;;;;;;;;25.75;21.75;;;;;;;;4998216;28;45370;-66
2021/12/24 10:39:21;;;;;;;;;24.25;21.50;;;;;;;;4997326;28;45396;-66
2021/12/24 10:41:48;;;;;;;;;20.75;20.25;;;;;;;;4995569;28;45475;-66
2021/12/24 10:44:17;;;;;;;;;23.25;17.75;;;;;;;;4993852;28;46405;-66
2021/12/24 10:47:00;;;;;;;;;24.00;19.00;;;;;;;;4996417;28;45452;-66
2021/12/24 10:54:50;;;;;;;;;20.00;17.25;;;;;;;;4991691;28;45949;-66
2021/12/24 10:57:16;;;;;;;;;27.67;23.67;;;;;;;;4991076;28;45442;-66
2021/12/24 10:59:44;;;;;;;;;26.00;23.00;;;;;;;;4973982;28;46905;-66
2021/12/24 11:02:10;;;;;;;;;23.75;21.75;;;;;;;;4990170;28;45759;-66
2021/12/24 11:04:36;;;;;;;;;26.50;22.25;;;;;;;;4992351;28;45464;-66
2021/12/24 11:07:01;;;;;;;;;27.00;21.75;;;;;;;;4993749;28;45384;-66
2021/12/24 11:09:27;;;;;;;;;21.25;19.25;;;;;;;;4976342;28;45397;-66
2021/12/24 11:11:55;;;;;;;;;27.33;23.00;;;;;;;;4990203;28;45500;-66
2021/12/24 11:14:20;;;;;;;;;23.00;20.25;;;;;;;;4989503;28;45798;-66
2021/12/24 11:16:45;;;;;;;;;30.00;23.33;;;;;;;;4994384;28;45269;-66
2021/12/24 11:19:11;;;;;;;;;36.00;24.00;;;;;;;;4995208;28;45253;-66
2021/12/24 11:21:36;;;;;;;;;29.00;23.67;;;;;;;;4990814;28;45735;-66
2021/12/24 11:24:01;;;;;;;;;25.33;22.67;;;;;;;;4989760;28;45358;-66
2021/12/24 11:26:28;;;;;;;;;28.33;22.00;;;;;;;;4998129;28;45471;-66
2021/12/24 11:28:53;;;;;;;;;25.25;20.75;;;;;;;;4995110;28;45423;-66
2021/12/24 11:31:21;;;;;;;;;25.25;22.25;;;;;;;;4995585;28;45593;-66
2021/12/24 11:33:47;;;;;;;;;23.25;22.00;;;;;;;;4997491;28;45960;-66
2021/12/24 11:36:14;;;;;;;;;23.75;19.75;;;;;;;;4995622;28;45462;-66
2021/12/24 11:38:41;;;;;;;;;25.00;20.25;;;;;;;;4994911;28;45474;-66
2021/12/24 11:41:10;;;;;;;;;15.75;14.75;;;;;;;;4995199;28;46224;-66
2021/12/24 11:43:37;;;;;;;;;21.00;18.25;;;;;;;;4994710;28;45491;-66
2021/12/24 11:46:06;;;;;;;;;24.25;17.00;;;;;;;;4995187;28;45640;-66
2021/12/24 11:48:33;;;;;;;;;22.50;17.25;;;;;;;;5012165;28;45499;-66
2021/12/24 11:50:59;;;;;;;;;18.00;18.00;;;;;;;;4994891;28;45673;-66
2021/12/24 11:53:25;;;;;;;;;25.25;18.75;;;;;;;;4994558;28;45467;-66
2021/12/24 11:55:50;;;;;;;;;25.75;21.25;;;;;;;;4995565;28;45587;-66
2021/12/24 11:58:24;;;;;;;;;25.25;21.25;;;;;;;;4995372;28;45530;-66
2021/12/24 12:00:52;;;;;;;;;27.00;19.50;;;;;;;;4992917;28;46675;-66
2021/12/24 12:03:31;;;;;;;;;34.00;28.00;;;;;;;;4996126;28;45269;-66
2021/12/24 12:05:56;;;;;;;;;36.25;28.75;;;;;;;;4996533;28;45492;-66
2021/12/24 12:08:21;;;;;;;;;32.00;22.75;;;;;;;;4992333;28;45488;-66
2021/12/24 12:10:51;;;;;;;;;23.00;22.00;;;;;;;;4984629;28;46303;-66
2021/12/24 12:13:36;;;;;;;;;40.75;27.00;;;;;;;;4982357;28;46019;-66
2021/12/24 12:16:03;;;;;;;;;28.25;23.75;;;;;;;;4994356;28;45359;-66
2021/12/24 12:18:29;;;;;;;;;21.75;20.00;;;;;;;;5009339;28;45349;-66
2021/12/24 12:21:07;;;;;;;;;15.25;15.25;;;;;;;;4995225;28;45521;-66
2021/12/24 12:23:51;;;;;;;;;21.25;17.00;;;;;;;;4995519;28;45388;-66
2021/12/24 12:26:35;;;;;;;;;24.75;19.00;;;;;;;;4995926;28;45445;-67
2021/12/24 12:29:19;;;;;;;;;21.25;16.50;;;;;;;;4994704;28;45374;-66
2021/12/24 12:31:45;;;;;;;;;18.25;17.00;;;;;;;;4996246;28;45522;-66
2021/12/24 12:34:29;;;;;;;;;16.50;15.00;;;;;;;;4995445;28;45387;-66
2021/12/24 12:37:10;;;;;;;;;22.25;19.50;;;;;;;;4993346;28;45380;-66
2021/12/24 12:39:36;;;;;;;;;30.50;28.25;;;;;;;;4995368;28;45324;-66
2021/12/24 12:42:02;;;;;;;;;32.75;21.50;;;;;;;;4993818;28;46413;-66
2021/12/24 12:44:27;;;;;;;;;25.00;22.33;;;;;;;;4992816;28;45411;-66
2021/12/24 12:47:07;;;;;;;;;26.00;20.25;;;;;;;;5009445;28;45328;-66
2021/12/24 12:49:34;;;;;;;;;24.75;19.00;;;;;;;;4994469;28;45259;-66
2021/12/24 12:52:00;;;;;;;;;30.75;23.00;;;;;;;;4994070;28;45535;-66
2021/12/24 12:54:26;;;;;;;;;25.50;25.50;;;;;;;;4995770;28;45458;-66
2021/12/24 12:57:10;;;;;;;;;28.75;21.00;;;;;;;;4994439;28;45502;-66
2021/12/24 12:59:36;;;;;;;;;25.00;21.25;;;;;;;;4994561;28;45458;-66
2021/12/24 13:02:01;;;;;;;;;20.33;17.67;;;;;;;;4994146;28;45392;-65
2021/12/24 13:04:26;;;;;;;;;19.75;17.00;;;;;;;;4994112;28;45404;-66
2021/12/24 13:06:52;;;;;;;;;22.00;16.33;;;;;;;;4994809;28;45398;-66
2021/12/24 13:09:21;;;;;;;;;22.75;18.50;;;;;;;;4994358;28;45468;-66
2021/12/24 13:11:48;;;;;;;;;28.25;19.50;;;;;;;;4994227;28;47050;-66
2021/12/24 13:14:15;;;;;;;;;23.75;17.75;;;;;;;;4994069;28;45277;-66
2021/12/24 13:16:53;;;;;;;;;24.50;19.25;;;;;;;;4994122;28;45384;-66
2021/12/24 13:19:55;;;;;;;;;24.50;22.25;;;;;;;;4980177;28;45399;-66
2021/12/24 13:22:32;;;;;;;;;24.00;22.75;;;;;;;;4987650;28;45532;-66
2021/12/24 13:24:59;;;;;;;;;29.00;22.25;;;;;;;;4993126;28;45880;-66
2021/12/24 13:27:27;;;;;;;;;26.25;24.00;;;;;;;;4995368;28;45429;-66
2021/12/24 13:30:05;;;;;;;;;28.50;22.25;;;;;;;;4994998;28;45420;-66
2021/12/24 13:32:30;;;;;;;;;22.75;19.50;;;;;;;;4994534;28;45552;-66
2021/12/24 13:34:56;;;;;;;;;30.67;24.33;;;;;;;;4994358;28;45479;-67
2021/12/24 13:37:21;;;;;;;;;23.75;20.75;;;;;;;;4995355;28;45269;-66
2021/12/24 13:39:48;;;;;;;;;25.33;21.33;;;;;;;;4995564;28;45545;-66
2021/12/24 13:42:13;;;;;;;;;26.50;20.75;;;;;;;;4994852;28;45682;-66
2021/12/24 13:44:38;;;;;;;;;27.33;18.67;;;;;;;;4995089;28;45782;-66
2021/12/24 13:47:10;;;;;;;;;29.50;26.50;;;;;;;;4994466;28;45805;-66
2021/12/24 13:55:22;;;;;;;;;25.25;18.50;;;;;;;;4970992;28;45953;-66
2021/12/24 13:57:54;;;;;;;;;19.50;12.50;;;;;;;;4973138;28;45483;-66
2021/12/24 14:00:20;;;;;;;;;14.25;13.00;;;;;;;;4971826;28;45349;-66
2021/12/24 14:02:52;;;;;;;;;16.50;15.25;;;;;;;;4970906;28;46603;-66
2021/12/24 14:05:18;;;;;;;;;20.25;17.25;;;;;;;;4971927;28;49912;-66
2021/12/24 14:07:46;;;;;;;;;17.50;15.00;;;;;;;;4971971;28;45650;-66
2021/12/24 14:10:22;;;;;;;;;24.50;19.25;;;;;;;;4972184;28;45603;-66
2021/12/24 14:12:47;;;;;;;;;20.00;18.25;;;;;;;;4968979;28;45455;-66
2021/12/24 14:15:15;;;;;;;;;28.00;18.00;;;;;;;;4972022;28;45560;-66
2021/12/24 14:21:00;;;;;;;;;15.25;12.50;;;;;;;;4959091;28;45627;-66
2021/12/24 14:23:23;;;;;;;;;26.50;22.75;;;;;;;;4971360;28;46399;-66
2021/12/24 14:25:56;;;;;;;;;23.00;22.00;;;;;;;;4971955;28;45971;-66
2021/12/24 14:28:22;;;;;;;;;20.00;16.50;;;;;;;;4968757;28;45855;-66
2021/12/24 14:30:48;;;;;;;;;24.25;17.00;;;;;;;;4995182;28;45522;-66
2021/12/24 14:33:13;;;;;;;;;20.00;18.50;;;;;;;;4992475;28;45281;-66
2021/12/24 14:35:43;;;;;;;;;26.50;20.25;;;;;;;;4994566;28;45353;-66
2021/12/24 14:38:15;;;;;;;;;17.50;16.25;;;;;;;;4994247;28;45351;-66
2021/12/24 14:40:40;;;;;;;;;24.25;18.75;;;;;;;;4994324;28;45588;-66
2021/12/24 14:43:12;;;;;;;;;21.00;18.00;;;;;;;;4994189;28;45559;-66
2021/12/24 14:45:39;;;;;;;;;21.75;18.00;;;;;;;;4993927;28;45883;-66
2021/12/24 14:48:04;;;;;;;;;18.75;17.25;;;;;;;;4993707;28;45281;-66
2021/12/24 14:50:31;;;;;;;;;15.00;13.33;;;;;;;;4993717;28;45483;-66
2021/12/24 14:53:09;;;;;;;;;19.00;14.00;;;;;;;;4991924;28;45556;-66
2021/12/24 14:55:40;;;;;;;;;18.50;16.25;;;;;;;;4980435;28;45807;-67
2021/12/24 14:58:05;;;;;;;;;15.75;15.25;;;;;;;;4994056;28;45525;-66
2021/12/24 15:00:35;;;;;;;;;24.75;22.50;;;;;;;;4994343;28;46324;-66
2021/12/24 15:03:07;;;;;;;;;24.25;16.00;;;;;;;;4993152;28;46703;-66
2021/12/24 15:05:34;;;;;;;;;22.00;17.50;;;;;;;;4993869;28;45766;-66
2021/12/24 15:08:00;;;;;;;;;23.75;16.50;;;;;;;;4993667;28;45399;-66
2021/12/24 15:10:26;;;;;;;;;17.00;13.75;;;;;;;;4992894;28;46641;-66
2021/12/24 15:12:59;;;;;;;;;16.50;15.50;;;;;;;;4993728;28;46347;-66
2021/12/24 15:15:25;;;;;;;;;14.75;13.75;;;;;;;;4996239;28;45911;-66
2021/12/24 15:17:51;;;;;;;;;20.25;14.00;;;;;;;;4993740;28;45389;-66
2021/12/24 15:20:16;;;;;;;;;15.00;14.50;;;;;;;;4995871;28;45605;-66
2021/12/24 15:22:41;;;;;;;;;25.00;17.33;;;;;;;;4994821;28;45675;-66
2021/12/24 15:25:08;;;;;;;;;18.00;13.33;;;;;;;;4995502;28;45509;-66
2021/12/24 15:27:35;;;;;;;;;21.00;16.75;;;;;;;;4997227;28;45435;-66
2021/12/24 15:30:03;;;;;;;;;17.75;14.50;;;;;;;;4995993;28;45309;-66
2021/12/24 15:32:28;;;;;;;;;17.75;15.25;;;;;;;;4991159;28;48189;-66
2021/12/24 15:34:53;;;;;;;;;20.67;17.67;;;;;;;;4983406;28;45400;-66
2021/12/24 15:37:19;;;;;;;;;22.67;14.00;;;;;;;;4995395;28;45999;-66
2021/12/24 15:39:44;;;;;;;;;16.75;15.75;;;;;;;;4992907;28;45447;-66
2021/12/24 15:42:10;;;;;;;;;14.50;13.25;;;;;;;;4995245;28;46284;-66
2021/12/24 15:44:41;;;;;;;;;23.25;16.50;;;;;;;;4995593;28;45474;-66
2021/12/24 15:47:06;;;;;;;;;21.25;15.00;;;;;;;;4994749;28;45561;-66
2021/12/24 15:49:31;;;;;;;;;25.25;18.25;;;;;;;;4996785;28;45546;-66
2021/12/24 15:51:57;;;;;;;;;21.00;16.33;;;;;;;;4995948;28;46446;-66
2021/12/24 15:54:23;;;;;;;;;17.25;16.25;;;;;;;;4996137;28;45518;-66
2021/12/24 15:56:48;;;;;;;;;22.33;19.00;;;;;;;;4995464;28;45427;-66
2021/12/24 15:59:14;;;;;;;;;21.33;17.00;;;;;;;;4996485;28;45411;-66
2021/12/24 16:01:39;;;;;;;;;26.67;19.67;;;;;;;;4995048;28;46788;-66
2021/12/24 16:04:04;;;;;;;;;20.33;16.00;;;;;;;;4996187;28;45365;-66
2021/12/24 16:06:29;;;;;;;;;24.33;18.33;;;;;;;;4997256;28;45594;-66
2021/12/24 16:08:54;;;;;;;;;23.33;19.00;;;;;;;;4996263;28;45428;-67
2021/12/24 16:11:19;;;;;;;;;26.33;20.00;;;;;;;;4995991;28;46204;-66
2021/12/24 16:13:45;;;;;;;;;28.67;20.33;;;;;;;;4996075;28;45502;-66
2021/12/24 16:16:10;;;;;;;;;24.67;23.33;;;;;;;;4995792;28;45313;-66